createdAt,value
2023-02-22T00:02:45.170Z,13.30
2023-02-22T00:05:33.601Z,13.40
2023-02-22T00:08:26.038Z,13.30
2023-02-22T00:11:15.025Z,13.40
2023-02-22T00:14:03.647Z,13.40
2023-02-22T00:16:52.102Z,13.40
2023-02-22T00:19:40.538Z,13.50
2023-02-22T00:22:29.491Z,13.40
2023-02-22T00:25:20.953Z,13.40
2023-02-22T00:28:09.476Z,13.60
2023-02-22T00:30:57.921Z,13.40
2023-02-22T00:33:46.398Z,13.40
2023-02-22T00:36:34.839Z,13.30
2023-02-22T00:39:23.293Z,13.30
2023-02-22T00:42:13.086Z,13.30
2023-02-22T00:45:01.544Z,13.20
2023-02-22T00:47:50.694Z,13.10
2023-02-22T00:50:39.350Z,13.20
2023-02-22T00:53:28.191Z,13.20
2023-02-22T00:56:16.668Z,13.20
2023-02-22T00:59:06.504Z,13.30
2023-02-22T01:01:55.103Z,13.30
2023-02-22T01:04:43.642Z,13.30
2023-02-22T01:07:32.309Z,13.30
2023-02-22T01:10:23.220Z,13.40
2023-02-22T01:13:13.333Z,13.40
2023-02-22T01:16:03.260Z,13.40
2023-02-22T01:18:51.676Z,13.30
2023-02-22T01:21:41.465Z,13.40
2023-02-22T01:24:29.899Z,13.40
2023-02-22T01:27:18.918Z,13.30
2023-02-22T01:30:09.530Z,13.30
2023-02-22T01:32:59.487Z,13.30
2023-02-22T01:35:48.434Z,13.40
2023-02-22T01:38:36.902Z,13.30
2023-02-22T01:41:25.650Z,13.30
2023-02-22T01:44:23.038Z,13.30
2023-02-22T01:47:11.514Z,13.40
2023-02-22T01:50:01.389Z,13.50
2023-02-22T01:52:50.442Z,13.20
2023-02-22T01:55:40.497Z,13.20
2023-02-22T01:58:31.550Z,13.20
2023-02-22T02:01:23.079Z,13.30
2023-02-22T02:04:16.561Z,13.20
2023-02-22T02:07:08.933Z,13.20
2023-02-22T02:10:00.101Z,13.20
2023-02-22T02:12:51.168Z,13.20
2023-02-22T02:15:40.319Z,13.20
2023-02-22T02:18:29.801Z,13.20
2023-02-22T02:21:49.924Z,13.20
2023-02-22T02:25:23.528Z,13.20
2023-02-22T02:28:40.689Z,13.20
2023-02-22T02:32:06.369Z,13.20
2023-02-22T02:35:05.262Z,13.20
2023-02-22T02:37:58.817Z,13.10
2023-02-22T02:40:52.486Z,13.20
2023-02-22T02:43:47.203Z,13.00
2023-02-22T02:46:38.404Z,13.00
2023-02-22T02:49:31.919Z,13.00
2023-02-22T02:52:24.416Z,13.00
2023-02-22T02:55:13.481Z,13.10
2023-02-22T02:58:04.685Z,13.10
2023-02-22T03:00:55.570Z,13.10
2023-02-22T03:04:00.677Z,13.00
2023-02-22T03:07:09.473Z,13.00
2023-02-22T03:10:32.178Z,13.00
2023-02-22T03:19:13.120Z,12.80
2023-02-22T05:20:56.678Z,12.60
2023-02-22T05:23:45.195Z,12.80
2023-02-22T05:26:35.295Z,12.80
2023-02-22T05:29:23.843Z,12.80
2023-02-22T05:32:13.329Z,12.80
2023-02-22T05:35:01.787Z,12.80
2023-02-22T05:37:50.796Z,12.80
2023-02-22T05:40:39.247Z,12.80
2023-02-22T05:43:29.050Z,12.80
2023-02-22T05:46:17.490Z,12.80
2023-02-22T05:49:05.966Z,12.80
2023-02-22T05:51:55.862Z,12.80
2023-02-22T05:54:44.432Z,12.80
2023-02-22T05:57:33.056Z,12.80
2023-02-22T06:00:25.432Z,12.80
2023-02-22T06:03:14.132Z,12.80
2023-02-22T06:06:02.516Z,12.80
2023-02-22T06:08:51.155Z,12.80
2023-02-22T06:11:39.667Z,12.90
2023-02-22T06:14:28.201Z,12.90
2023-02-22T06:17:20.353Z,12.90
2023-02-22T06:20:10.588Z,12.80
2023-02-22T06:22:59.673Z,12.80
2023-02-22T06:25:48.168Z,12.80
2023-02-22T06:28:36.774Z,12.80
2023-02-22T06:31:25.201Z,12.90
2023-02-22T06:34:15.072Z,12.80
2023-02-22T06:37:03.480Z,12.80
2023-02-22T06:39:51.975Z,12.80
2023-02-22T06:42:40.991Z,12.80
2023-02-22T06:45:29.674Z,12.80
2023-02-22T06:48:18.456Z,12.80
2023-02-22T06:51:09.944Z,12.80
2023-02-22T06:53:58.480Z,12.80
2023-02-22T06:56:47.131Z,12.70
2023-02-22T06:59:35.543Z,12.70
2023-02-22T07:02:23.979Z,12.80
2023-02-22T07:05:13.492Z,12.80
2023-02-22T07:08:08.435Z,12.80
2023-02-22T07:10:57.164Z,12.80
2023-02-22T07:13:45.640Z,12.90
2023-02-22T07:16:34.644Z,12.90
2023-02-22T07:19:23.639Z,12.90
2023-02-22T07:22:12.131Z,12.80
2023-02-22T07:25:01.882Z,12.80
2023-02-22T07:27:52.411Z,12.80
2023-02-22T07:30:40.985Z,12.80
2023-02-22T07:33:29.680Z,12.80
2023-02-22T07:36:19.880Z,12.90
2023-02-22T07:39:08.803Z,12.90
2023-02-22T07:41:59.316Z,12.90
2023-02-22T07:44:47.831Z,13.00
2023-02-22T07:47:36.314Z,13.00
2023-02-22T07:50:26.249Z,13.00
2023-02-22T07:53:18.086Z,13.00
2023-02-22T07:56:08.802Z,13.10
2023-02-22T07:58:58.716Z,13.00
2023-02-22T08:01:49.997Z,13.00
2023-02-22T08:04:39.450Z,13.10
2023-02-22T08:07:27.907Z,13.20
2023-02-22T08:10:17.521Z,13.10
2023-02-22T08:13:07.014Z,13.10
2023-02-22T08:15:57.194Z,13.10
2023-02-22T08:18:45.634Z,13.10
2023-02-22T08:21:34.214Z,12.90
2023-02-22T08:24:22.681Z,12.80
2023-02-22T08:27:11.092Z,12.90
2023-02-22T08:29:59.534Z,12.90
2023-02-22T08:32:50.127Z,13.00
2023-02-22T08:35:40.910Z,13.10
2023-02-22T08:38:31.952Z,13.20
2023-02-22T08:41:20.390Z,13.00
2023-02-22T08:44:08.835Z,12.90
2023-02-22T08:46:58.503Z,12.90
2023-02-22T08:49:48.320Z,12.90
2023-02-22T08:52:36.918Z,13.00
2023-02-22T08:55:27.435Z,13.00
2023-02-22T08:58:15.884Z,13.10
2023-02-22T09:01:04.615Z,13.20
2023-02-22T09:03:53.208Z,13.20
2023-02-22T09:06:43.426Z,13.20
2023-02-22T09:09:31.959Z,13.30
2023-02-22T09:12:20.407Z,13.30
2023-02-22T09:15:09.751Z,13.30
2023-02-22T09:17:58.599Z,13.30
2023-02-22T09:20:47.066Z,13.40
2023-02-22T09:23:36.962Z,13.50
2023-02-22T09:26:25.455Z,13.50
2023-02-22T09:29:13.952Z,13.50
2023-02-22T09:32:03.975Z,13.50
2023-02-22T09:34:52.536Z,13.50
2023-02-22T09:37:44.567Z,13.50
2023-02-22T09:40:41.081Z,13.60
2023-02-22T09:43:40.581Z,13.60
2023-02-22T09:46:34.971Z,13.50
2023-02-22T09:49:26.376Z,13.50
2023-02-22T09:52:19.770Z,13.50
2023-02-22T09:55:17.290Z,13.50
2023-02-22T09:58:15.316Z,13.60
2023-02-22T10:01:19.815Z,13.40
2023-02-22T10:04:18.563Z,13.50
2023-02-22T10:07:18.293Z,13.50
2023-02-22T10:10:13.888Z,13.50
2023-02-22T10:13:14.105Z,13.50
2023-02-22T10:16:07.686Z,13.60
2023-02-22T10:19:16.140Z,13.60
2023-02-22T10:22:29.321Z,13.60
2023-02-22T10:25:22.184Z,13.70
2023-02-22T10:28:19.344Z,13.70
2023-02-22T10:31:10.508Z,13.70
2023-02-22T10:34:03.122Z,13.70
2023-02-22T10:36:56.677Z,13.70
2023-02-22T10:39:46.748Z,13.80
2023-02-22T10:42:35.454Z,13.80
2023-02-22T10:45:28.513Z,13.80
2023-02-22T10:48:21.149Z,13.80
2023-02-22T10:51:11.482Z,13.90
2023-02-22T11:02:37.448Z,14.10
2023-02-22T11:05:36.748Z,14.00
2023-02-22T11:08:29.183Z,13.90
2023-02-22T11:11:25.346Z,13.90
2023-02-22T11:14:25.465Z,13.90
2023-02-22T11:17:23.443Z,13.90
2023-02-22T11:20:25.331Z,13.90
2023-02-22T11:23:14.563Z,13.90
2023-02-22T11:26:14.548Z,13.90
2023-02-22T11:29:12.264Z,14.00
2023-02-22T11:32:03.591Z,14.00
2023-02-22T11:35:03.569Z,14.10
2023-02-22T11:38:11.736Z,13.50
2023-02-22T11:41:14.511Z,14.30
2023-02-22T11:44:24.747Z,14.30
2023-02-22T11:47:13.877Z,14.30
2023-02-22T11:50:03.162Z,14.40
2023-02-22T11:53:10.267Z,14.40
2023-02-22T11:56:16.113Z,14.40
2023-02-22T11:59:15.922Z,14.50
2023-02-22T12:02:23.333Z,14.50
2023-02-22T12:05:25.300Z,14.60
2023-02-22T12:08:26.799Z,14.70
2023-02-22T12:11:20.613Z,14.70
2023-02-22T12:14:21.926Z,14.60
2023-02-22T12:17:35.027Z,14.70
2023-02-22T12:20:26.780Z,14.70
2023-02-22T12:23:22.635Z,14.70
2023-02-22T12:26:16.614Z,14.70
2023-02-22T12:29:13.064Z,14.70
2023-02-22T12:32:06.002Z,14.80
2023-02-22T12:34:59.636Z,14.80
2023-02-22T12:38:04.107Z,14.70
2023-02-22T12:41:01.538Z,14.80
2023-02-22T12:43:55.516Z,14.80
2023-02-22T12:46:47.711Z,14.80
2023-02-22T12:49:41.642Z,14.80
2023-02-22T12:52:41.236Z,14.90
2023-02-22T12:55:34.526Z,14.90
2023-02-22T12:58:30.411Z,15.00
2023-02-22T13:01:22.109Z,15.00
2023-02-22T13:04:20.415Z,15.10
2023-02-22T13:07:22.039Z,15.10
2023-02-22T13:10:33.079Z,15.20
2023-02-22T13:13:31.514Z,15.20
2023-02-22T13:16:29.888Z,15.30
2023-02-22T13:19:34.189Z,15.30
2023-02-22T13:22:26.649Z,15.20
2023-02-22T13:25:21.704Z,15.20
2023-02-22T13:28:22.058Z,15.20
2023-02-22T13:31:39.876Z,15.20
2023-02-22T13:34:50.446Z,15.20
2023-02-22T13:38:07.378Z,15.10
2023-02-22T13:41:12.871Z,15.20
2023-02-22T13:44:28.713Z,15.10
2023-02-22T13:47:39.403Z,15.00
2023-02-22T13:51:02.629Z,14.80
2023-02-22T13:53:56.089Z,14.80
2023-02-22T13:56:45.349Z,14.80
2023-02-22T13:59:36.373Z,14.80
2023-02-22T14:03:02.074Z,14.90
2023-02-22T14:05:52.700Z,15.00
2023-02-22T14:08:42.654Z,15.00
2023-02-22T14:11:57.968Z,14.70
2023-02-22T14:15:28.661Z,14.50
2023-02-22T14:18:19.536Z,14.50
2023-02-22T14:21:09.880Z,14.50
2023-02-22T14:24:08.759Z,14.60
2023-02-22T14:27:01.525Z,14.70
2023-02-22T14:29:55.407Z,14.70
2023-02-22T14:32:44.128Z,14.70
2023-02-22T14:35:49.484Z,14.70
2023-02-22T14:38:38.928Z,14.80
2023-02-22T14:41:31.086Z,14.80
2023-02-22T14:44:25.480Z,14.80
2023-02-22T14:47:21.017Z,14.80
2023-02-22T14:50:15.920Z,14.80
2023-02-22T14:53:13.309Z,14.80
2023-02-22T14:56:06.917Z,14.80
2023-02-22T14:59:00.874Z,14.80
2023-02-22T15:02:05.817Z,14.80
2023-02-22T15:04:58.202Z,14.80
2023-02-22T15:07:55.306Z,14.80
2023-02-22T15:10:46.710Z,14.90
2023-02-22T15:13:35.176Z,14.80
2023-02-22T15:16:24.493Z,14.80
2023-02-22T15:19:13.728Z,14.70
2023-02-22T15:22:03.942Z,14.80
2023-02-22T15:24:59.894Z,14.70
2023-02-22T15:27:49.830Z,14.60
2023-02-22T15:30:38.364Z,14.60
2023-02-22T15:33:37.950Z,14.50
2023-02-22T15:36:31.047Z,14.50
2023-02-22T15:39:20.851Z,14.40
2023-02-22T15:42:19.201Z,14.50
2023-02-22T15:45:14.122Z,14.50
2023-02-22T15:48:03.357Z,14.50
2023-02-22T15:51:06.836Z,14.50
2023-02-22T15:53:55.286Z,14.50
2023-02-22T15:56:49.853Z,14.30
2023-02-22T15:59:45.520Z,14.40
2023-02-22T16:02:39.242Z,14.40
2023-02-22T16:05:38.095Z,14.50
2023-02-22T16:08:31.270Z,14.50
2023-02-22T16:11:29.947Z,14.50
2023-02-22T16:14:27.508Z,14.50
2023-02-22T16:17:32.483Z,14.50
2023-02-22T16:20:38.712Z,14.50
2023-02-22T16:23:28.952Z,14.50
2023-02-22T16:26:28.084Z,14.50
2023-02-22T16:29:27.448Z,14.50
2023-02-22T16:32:16.097Z,14.50
2023-02-22T16:35:04.714Z,14.40
2023-02-22T16:37:59.138Z,14.50
2023-02-22T16:40:50.577Z,14.50
2023-02-22T16:43:39.154Z,14.50
2023-02-22T16:46:27.695Z,14.60
2023-02-22T16:49:16.403Z,14.50
2023-02-22T16:52:08.445Z,14.40
2023-02-22T16:54:58.278Z,14.40
2023-02-22T16:57:47.539Z,14.30
2023-02-22T17:00:36.059Z,14.30
2023-02-22T17:03:25.526Z,14.40
2023-02-22T17:06:14.006Z,14.30
2023-02-22T17:09:02.416Z,14.30
2023-02-22T17:11:54.015Z,14.30
2023-02-22T17:14:46.938Z,14.30
2023-02-22T17:17:35.376Z,14.30
2023-02-22T17:20:30.081Z,14.30
2023-02-22T17:23:19.893Z,14.20
2023-02-22T17:26:08.400Z,14.30
2023-02-22T17:28:58.310Z,14.30
2023-02-22T17:31:48.812Z,14.30
2023-02-22T17:34:37.548Z,14.30
2023-02-22T17:37:25.992Z,14.30
2023-02-22T17:40:15.695Z,14.30
2023-02-22T17:43:04.808Z,14.30
2023-02-22T17:45:54.865Z,14.30
2023-02-22T17:48:43.501Z,14.30
2023-02-22T17:51:31.941Z,14.30
2023-02-22T17:54:20.623Z,14.30
2023-02-22T17:57:09.091Z,14.30
2023-02-22T17:59:58.039Z,14.30
2023-02-22T18:02:48.077Z,14.30
2023-02-22T18:05:41.308Z,14.30
2023-02-22T18:08:32.044Z,14.30
2023-02-22T18:11:25.003Z,14.30
2023-02-22T18:14:13.406Z,14.30
2023-02-22T18:17:02.143Z,14.30
2023-02-22T18:19:52.000Z,14.30
2023-02-22T18:22:42.719Z,14.30
2023-02-22T18:25:32.833Z,14.30
2023-02-22T18:28:22.679Z,14.30
2023-02-22T18:31:15.121Z,14.30
2023-02-22T18:34:03.763Z,14.30
2023-02-22T18:36:53.788Z,14.20
2023-02-22T18:39:43.174Z,14.20
2023-02-22T18:42:31.615Z,14.20
2023-02-22T18:45:21.144Z,14.20
2023-02-22T18:48:09.566Z,14.20
2023-02-22T18:51:01.326Z,14.20
2023-02-22T18:53:54.947Z,14.20
2023-02-22T18:56:43.420Z,14.20
2023-02-22T18:59:31.886Z,14.20
2023-02-22T19:02:21.287Z,14.20
2023-02-22T19:05:10.014Z,14.20
2023-02-22T19:07:58.455Z,14.10
2023-02-22T19:13:38.898Z,13.80
2023-02-22T19:16:28.868Z,13.80
2023-02-22T19:19:20.803Z,14.00
2023-02-22T19:22:09.281Z,14.10
2023-02-22T19:24:57.971Z,14.10
2023-02-22T19:27:47.737Z,14.10
2023-02-22T19:30:36.155Z,14.00
2023-02-22T19:33:26.101Z,14.10
2023-02-22T19:36:16.679Z,13.90
2023-02-22T19:39:05.582Z,13.90
2023-02-22T19:41:53.990Z,13.90
2023-02-22T19:44:43.896Z,13.80
2023-02-22T19:47:33.085Z,13.70
2023-02-22T19:50:22.447Z,13.60
2023-02-22T19:53:14.019Z,13.60
2023-02-22T19:56:06.730Z,13.90
2023-02-22T19:58:57.213Z,14.00
2023-02-22T20:01:47.063Z,13.90
2023-02-22T20:04:37.404Z,13.70
2023-02-22T20:07:25.931Z,13.70
2023-02-22T20:10:15.175Z,13.90
2023-02-22T20:13:03.868Z,13.70
